createdAt,value
2019-06-26T00:00:18.721Z,99.90
2019-06-26T00:02:47.048Z,99.90
2019-06-26T00:05:15.350Z,99.90
2019-06-26T00:07:43.686Z,99.90
2019-06-26T00:10:13.154Z,99.90
2019-06-26T00:12:41.414Z,99.90
2019-06-26T00:15:09.716Z,99.90
2019-06-26T00:17:38.055Z,99.90
2019-06-26T00:20:07.127Z,99.90
2019-06-26T00:22:35.386Z,99.90
2019-06-26T00:25:06.369Z,99.90
2019-06-26T00:27:34.665Z,99.90
2019-06-26T00:30:04.026Z,99.90
2019-06-26T00:32:32.307Z,99.90
2019-06-26T00:35:00.705Z,99.90
2019-06-26T00:37:29.011Z,99.90
2019-06-26T00:39:57.343Z,99.90
2019-06-26T00:42:25.616Z,99.90
2019-06-26T00:44:53.981Z,99.90
2019-06-26T00:47:22.285Z,99.90
2019-06-26T00:49:50.625Z,99.90
2019-06-26T00:52:18.894Z,99.90
2019-06-26T00:54:47.205Z,99.90
2019-06-26T00:57:15.505Z,99.90
2019-06-26T00:59:43.810Z,99.90
2019-06-26T01:02:12.248Z,99.90
2019-06-26T01:04:48.170Z,99.90
2019-06-26T01:07:16.493Z,99.90
2019-06-26T01:09:44.790Z,99.90
2019-06-26T01:12:13.079Z,99.90
2019-06-26T01:14:41.350Z,99.90
2019-06-26T01:17:09.648Z,99.90
2019-06-26T01:19:37.923Z,99.90
2019-06-26T01:22:06.227Z,99.90
2019-06-26T01:24:34.556Z,99.90
2019-06-26T01:27:02.840Z,99.90
2019-06-26T01:29:32.663Z,99.90
2019-06-26T01:32:01.181Z,99.90
2019-06-26T01:34:29.683Z,99.90
2019-06-26T01:36:57.985Z,99.90
2019-06-26T01:39:26.413Z,99.90
2019-06-26T01:41:54.831Z,99.90
2019-06-26T01:44:23.080Z,99.90
2019-06-26T01:46:51.384Z,99.90
2019-06-26T01:49:19.660Z,99.90
2019-06-26T01:51:48.021Z,99.90
2019-06-26T01:54:16.295Z,99.90
2019-06-26T01:56:44.569Z,99.90
2019-06-26T01:59:12.872Z,99.90
2019-06-26T02:01:41.223Z,99.90
2019-06-26T02:04:09.565Z,99.90
2019-06-26T02:06:37.926Z,99.90
2019-06-26T02:09:06.484Z,99.90
2019-06-26T02:11:34.842Z,99.90
2019-06-26T02:14:03.141Z,99.90
2019-06-26T02:16:31.410Z,99.90
2019-06-26T02:19:01.410Z,99.90
2019-06-26T02:21:30.079Z,99.90
2019-06-26T02:23:58.334Z,99.90
2019-06-26T02:26:26.652Z,99.90
2019-06-26T02:28:54.976Z,99.90
2019-06-26T02:31:23.261Z,99.90
2019-06-26T02:33:51.606Z,99.90
2019-06-26T02:36:19.889Z,99.90
2019-06-26T02:38:48.267Z,99.90
2019-06-26T02:41:16.591Z,99.90
2019-06-26T02:43:44.937Z,99.90
2019-06-26T02:46:13.200Z,99.90
2019-06-26T02:48:41.579Z,99.90
2019-06-26T02:51:09.927Z,99.90
2019-06-26T02:53:38.270Z,99.90
2019-06-26T02:56:06.534Z,99.90
2019-06-26T02:58:34.831Z,99.90
2019-06-26T03:01:03.095Z,99.90
2019-06-26T03:03:31.377Z,99.90
2019-06-26T03:05:59.660Z,99.90
2019-06-26T03:08:28.027Z,99.90
2019-06-26T03:10:56.290Z,99.90
2019-06-26T03:13:24.603Z,99.90
2019-06-26T03:15:53.000Z,99.90
2019-06-26T03:18:21.370Z,99.90
2019-06-26T03:20:52.876Z,99.90
2019-06-26T03:23:21.173Z,99.90
2019-06-26T03:25:49.440Z,99.90
2019-06-26T03:28:17.688Z,99.90
2019-06-26T03:30:46.030Z,99.90
2019-06-26T03:33:14.294Z,99.90
2019-06-26T03:35:42.590Z,99.90
2019-06-26T03:38:10.865Z,99.90
2019-06-26T03:40:39.149Z,99.90
2019-06-26T03:43:07.469Z,99.90
2019-06-26T03:45:35.757Z,99.90
2019-06-26T03:48:04.093Z,99.90
2019-06-26T03:50:32.391Z,99.90
2019-06-26T03:53:00.748Z,99.90
2019-06-26T03:55:29.085Z,99.90
2019-06-26T03:57:57.355Z,99.90
2019-06-26T04:00:42.354Z,99.90
2019-06-26T04:03:10.618Z,99.90
2019-06-26T04:05:38.975Z,99.90
2019-06-26T04:08:07.272Z,99.90
2019-06-26T04:10:35.998Z,99.90
2019-06-26T04:13:04.258Z,99.90
2019-06-26T04:15:42.280Z,99.90
2019-06-26T04:18:02.541Z,99.90
2019-06-26T04:20:30.921Z,99.90
2019-06-26T04:22:59.162Z,99.90
2019-06-26T04:25:27.538Z,99.90
2019-06-26T04:27:55.814Z,99.90
2019-06-26T04:30:24.165Z,99.90
2019-06-26T04:32:52.453Z,99.90
2019-06-26T04:35:21.071Z,99.90
2019-06-26T04:37:49.508Z,99.90
2019-06-26T04:40:20.282Z,99.90
2019-06-26T04:42:47.800Z,99.90
2019-06-26T04:45:17.501Z,99.90
2019-06-26T04:47:46.044Z,99.90
2019-06-26T04:50:16.181Z,99.90
2019-06-26T04:52:44.479Z,99.90
2019-06-26T04:55:12.725Z,99.90
2019-06-26T04:57:41.025Z,99.90
2019-06-26T05:00:09.379Z,99.90
2019-06-26T05:02:37.702Z,99.90
2019-06-26T05:05:06.693Z,99.90
2019-06-26T05:07:35.248Z,99.90
2019-06-26T05:10:04.114Z,99.90
2019-06-26T05:12:32.410Z,99.90
2019-06-26T05:15:00.701Z,99.90
2019-06-26T05:17:29.091Z,99.90
2019-06-26T05:19:57.385Z,99.90
2019-06-26T05:22:25.660Z,99.90
2019-06-26T05:24:53.940Z,99.90
2019-06-26T05:27:24.971Z,99.90
2019-06-26T05:29:54.512Z,99.90
2019-06-26T05:32:23.030Z,99.90
2019-06-26T05:34:51.475Z,99.90
2019-06-26T05:37:19.767Z,99.90
2019-06-26T05:39:48.113Z,99.90
2019-06-26T05:42:16.420Z,99.90
2019-06-26T05:44:44.708Z,99.90
2019-06-26T05:47:12.981Z,99.90
2019-06-26T05:49:41.265Z,99.90
2019-06-26T05:52:09.517Z,99.90
2019-06-26T05:54:37.881Z,99.90
2019-06-26T05:57:06.148Z,99.90
2019-06-26T05:59:34.444Z,99.90
2019-06-26T06:02:02.718Z,99.90
2019-06-26T06:04:31.063Z,99.90
2019-06-26T06:06:59.418Z,99.90
2019-06-26T06:09:27.807Z,99.90
2019-06-26T06:11:56.136Z,99.90
2019-06-26T06:14:24.427Z,99.90
2019-06-26T06:16:52.699Z,99.90
2019-06-26T06:19:20.993Z,99.90
2019-06-26T06:21:49.259Z,99.90
2019-06-26T06:24:17.578Z,99.90
2019-06-26T06:26:45.868Z,99.90
2019-06-26T06:29:14.165Z,99.90
2019-06-26T06:31:42.502Z,99.90
2019-06-26T06:34:11.087Z,99.90
2019-06-26T06:36:39.394Z,99.90
2019-06-26T06:39:07.787Z,99.90
2019-06-26T06:41:36.138Z,99.90
2019-06-26T06:44:04.532Z,99.90
2019-06-26T06:46:32.857Z,99.90
2019-06-26T06:49:01.321Z,99.90
2019-06-26T06:51:29.618Z,99.90
2019-06-26T06:53:57.913Z,99.90
2019-06-26T06:56:26.228Z,99.90
2019-06-26T06:58:54.561Z,99.90
2019-06-26T07:01:22.890Z,99.90
2019-06-26T07:03:51.213Z,99.90
2019-06-26T07:06:19.534Z,99.90
2019-06-26T07:08:47.873Z,99.90
2019-06-26T07:11:16.175Z,99.90
2019-06-26T07:13:44.539Z,99.90
2019-06-26T07:16:12.815Z,99.90
2019-06-26T07:18:41.095Z,99.90
2019-06-26T07:21:09.390Z,99.90
2019-06-26T07:23:37.670Z,99.90
2019-06-26T07:26:05.964Z,99.90
2019-06-26T07:28:34.217Z,99.90
2019-06-26T07:31:02.511Z,99.90
2019-06-26T07:33:30.776Z,99.90
2019-06-26T07:35:59.081Z,99.90
2019-06-26T07:38:27.393Z,99.90
2019-06-26T07:40:55.767Z,99.90
2019-06-26T07:43:24.098Z,99.90
2019-06-26T07:45:52.418Z,99.90
2019-06-26T07:48:20.738Z,99.90
2019-06-26T07:50:49.008Z,99.90
2019-06-26T07:53:17.324Z,99.90
2019-06-26T07:55:45.636Z,99.90
2019-06-26T07:58:13.945Z,99.90
2019-06-26T08:00:42.223Z,99.90
2019-06-26T08:03:10.600Z,99.90
2019-06-26T08:05:42.647Z,99.90
2019-06-26T08:08:09.089Z,99.90
2019-06-26T08:10:37.408Z,99.90
2019-06-26T08:13:05.794Z,99.90
2019-06-26T08:15:34.071Z,99.90
2019-06-26T08:18:02.367Z,99.90
2019-06-26T08:20:30.643Z,99.90
2019-06-26T08:22:59.030Z,99.90
2019-06-26T08:25:27.296Z,99.90
2019-06-26T08:27:55.600Z,99.90
2019-06-26T08:30:23.871Z,99.90
2019-06-26T08:32:52.150Z,99.90
2019-06-26T08:35:20.435Z,99.90
2019-06-26T08:37:48.795Z,99.90
2019-06-26T08:40:17.184Z,99.90
2019-06-26T08:42:45.530Z,99.90
2019-06-26T08:45:13.789Z,99.90
2019-06-26T08:47:42.064Z,99.90
2019-06-26T08:50:10.424Z,99.90
2019-06-26T08:52:38.759Z,99.90
2019-06-26T08:55:08.320Z,99.90
2019-06-26T08:57:36.598Z,99.90
2019-06-26T09:00:06.682Z,99.90
2019-06-26T09:02:34.955Z,99.90
2019-06-26T09:05:04.116Z,99.90
2019-06-26T09:07:32.469Z,99.90
2019-06-26T09:10:00.811Z,99.90
2019-06-26T09:12:29.103Z,99.90
2019-06-26T09:14:57.458Z,99.90
2019-06-26T09:17:25.751Z,99.90
2019-06-26T09:19:54.047Z,99.90
2019-06-26T09:22:22.376Z,99.90
2019-06-26T09:24:50.669Z,99.90
2019-06-26T09:27:19.218Z,99.90
2019-06-26T09:29:47.674Z,99.90
2019-06-26T09:32:15.942Z,99.90
2019-06-26T09:34:44.305Z,99.90
2019-06-26T09:37:12.576Z,99.90
2019-06-26T09:39:40.884Z,99.90
2019-06-26T09:42:09.191Z,99.90
2019-06-26T09:44:37.484Z,99.90
2019-06-26T09:47:05.829Z,98.60
2019-06-26T09:49:34.263Z,97.40
2019-06-26T09:52:02.586Z,98.10
2019-06-26T09:54:30.896Z,98.90
2019-06-26T09:56:59.171Z,96.30
2019-06-26T09:59:27.479Z,95.60
2019-06-26T10:01:55.796Z,95.70
2019-06-26T10:04:24.101Z,94.80
2019-06-26T10:06:52.340Z,95.40
2019-06-26T10:09:20.608Z,95.50
2019-06-26T10:11:48.930Z,95.40
2019-06-26T10:14:17.274Z,95.20
2019-06-26T10:16:45.707Z,95.10
2019-06-26T10:19:13.965Z,91.20
2019-06-26T10:21:42.278Z,90.40
2019-06-26T10:24:10.624Z,90.60
2019-06-26T10:26:38.894Z,88.00
2019-06-26T10:29:07.192Z,85.30
2019-06-26T10:31:35.550Z,87.80
2019-06-26T10:34:03.815Z,86.50
2019-06-26T10:36:32.108Z,82.10
2019-06-26T10:39:00.442Z,82.90
2019-06-26T10:41:28.827Z,83.70
2019-06-26T10:43:57.139Z,84.30
2019-06-26T10:46:25.837Z,83.90
2019-06-26T10:48:54.197Z,83.20
2019-06-26T10:51:22.613Z,71.90
2019-06-26T10:53:50.956Z,72.90
2019-06-26T10:56:19.325Z,71.30
2019-06-26T10:58:47.738Z,75.50
2019-06-26T11:01:16.163Z,76.30
2019-06-26T11:03:44.445Z,76.60
2019-06-26T11:06:12.750Z,76.40
2019-06-26T11:08:41.070Z,76.70
2019-06-26T11:11:09.374Z,77.20
2019-06-26T11:13:37.678Z,74.30
2019-06-26T11:16:06.082Z,76.10
2019-06-26T11:18:34.395Z,74.90
2019-06-26T11:21:02.650Z,74.00
2019-06-26T11:23:30.930Z,73.40
2019-06-26T11:25:59.194Z,73.30
2019-06-26T11:28:27.575Z,73.50
2019-06-26T11:30:55.828Z,71.90
2019-06-26T11:33:24.123Z,72.80
2019-06-26T11:35:52.390Z,72.10
2019-06-26T11:38:20.666Z,72.30
2019-06-26T11:40:48.926Z,66.70
2019-06-26T11:43:17.196Z,66.10
2019-06-26T11:45:45.468Z,64.40
2019-06-26T11:48:13.750Z,65.10
2019-06-26T11:50:42.024Z,67.40
2019-06-26T11:53:10.326Z,67.10
2019-06-26T11:55:38.600Z,68.60
2019-06-26T11:58:07.010Z,68.30
2019-06-26T12:00:35.405Z,68.80
2019-06-26T12:03:03.972Z,68.90
2019-06-26T12:05:32.301Z,68.10
2019-06-26T12:08:00.621Z,67.70
2019-06-26T12:10:28.939Z,67.50
2019-06-26T12:12:57.211Z,67.40
2019-06-26T12:15:25.645Z,60.90
2019-06-26T12:17:53.962Z,62.10
2019-06-26T12:20:22.365Z,63.10
2019-06-26T12:22:50.704Z,63.50
2019-06-26T12:25:19.013Z,62.10
2019-06-26T12:27:47.340Z,61.50
2019-06-26T12:30:15.770Z,62.40
2019-06-26T12:33:01.111Z,62.70
2019-06-26T12:35:14.313Z,61.70
2019-06-26T12:37:42.631Z,60.90
2019-06-26T12:40:10.976Z,59.70
2019-06-26T12:42:39.244Z,60.40
2019-06-26T12:45:07.624Z,59.70
2019-06-26T12:47:35.955Z,58.20
2019-06-26T12:50:05.977Z,57.80
2019-06-26T12:52:34.229Z,56.00
2019-06-26T12:55:03.001Z,56.60
2019-06-26T12:57:31.259Z,56.20
2019-06-26T12:59:59.615Z,56.30
2019-06-26T13:02:27.960Z,55.10
2019-06-26T13:04:56.265Z,54.40
2019-06-26T13:07:24.601Z,54.70
2019-06-26T13:09:52.940Z,55.40
2019-06-26T13:12:21.234Z,55.30
2019-06-26T13:14:49.586Z,54.90
2019-06-26T13:17:18.011Z,54.20
2019-06-26T13:19:46.316Z,54.60
2019-06-26T13:22:14.722Z,53.80
2019-06-26T13:24:44.225Z,53.90
2019-06-26T13:27:12.705Z,52.80
2019-06-26T13:29:41.070Z,52.70
2019-06-26T13:32:09.477Z,52.20
2019-06-26T13:34:37.770Z,52.30
2019-06-26T13:37:07.417Z,51.50
2019-06-26T13:39:35.887Z,51.20
2019-06-26T13:42:04.246Z,50.60
2019-06-26T13:44:32.493Z,51.10
2019-06-26T13:47:00.783Z,51.00
2019-06-26T13:49:29.095Z,50.80
2019-06-26T13:51:57.428Z,50.00
2019-06-26T13:54:25.710Z,50.60
2019-06-26T13:56:54.009Z,50.00
2019-06-26T13:59:22.384Z,50.40
2019-06-26T14:01:50.648Z,49.90
2019-06-26T14:04:18.990Z,49.60
2019-06-26T14:06:47.293Z,49.80
2019-06-26T14:09:15.638Z,50.00
2019-06-26T14:11:43.957Z,49.50
2019-06-26T14:14:12.219Z,49.10
2019-06-26T14:16:40.786Z,48.90
2019-06-26T14:19:09.087Z,48.60
2019-06-26T14:21:37.463Z,48.30
2019-06-26T14:24:05.741Z,48.00
2019-06-26T14:26:34.049Z,47.90
2019-06-26T14:29:02.378Z,48.50
2019-06-26T14:31:30.691Z,49.10
2019-06-26T14:33:58.958Z,50.00
2019-06-26T14:36:27.248Z,50.30
2019-06-26T14:38:55.535Z,49.90
2019-06-26T14:41:23.789Z,49.40
2019-06-26T14:43:52.062Z,49.40
2019-06-26T14:46:20.343Z,49.40
2019-06-26T14:48:48.654Z,50.60
2019-06-26T14:51:16.918Z,50.40
2019-06-26T14:53:45.198Z,50.00
2019-06-26T14:56:13.483Z,49.70
2019-06-26T14:58:41.864Z,49.20
2019-06-26T15:01:10.154Z,49.20
2019-06-26T15:03:38.500Z,48.70
2019-06-26T15:06:16.260Z,49.50
2019-06-26T15:08:36.784Z,49.90
2019-06-26T15:11:05.048Z,49.70
2019-06-26T15:13:33.346Z,48.70
2019-06-26T15:16:01.673Z,49.00
2019-06-26T15:18:29.949Z,50.00
2019-06-26T15:20:58.232Z,49.70
2019-06-26T15:23:26.551Z,50.30
2019-06-26T15:25:54.895Z,50.20
2019-06-26T15:28:23.255Z,49.80
2019-06-26T15:30:51.617Z,50.00
2019-06-26T15:33:19.994Z,50.00
2019-06-26T15:35:48.249Z,51.00
2019-06-26T15:38:16.524Z,51.00
2019-06-26T15:40:44.800Z,51.30
2019-06-26T15:43:13.109Z,50.80
2019-06-26T15:45:41.405Z,50.60
2019-06-26T15:48:10.383Z,51.70
2019-06-26T15:50:38.773Z,50.90
2019-06-26T15:53:07.101Z,51.50
2019-06-26T15:55:35.417Z,52.40
2019-06-26T15:58:03.704Z,52.60
2019-06-26T16:00:32.055Z,51.70
2019-06-26T16:03:00.387Z,51.20
2019-06-26T16:05:28.664Z,51.50
2019-06-26T16:07:56.997Z,51.90
2019-06-26T16:10:25.324Z,52.10
2019-06-26T16:12:53.658Z,52.60
2019-06-26T16:15:21.931Z,52.10
2019-06-26T16:18:03.913Z,53.40
2019-06-26T16:20:32.197Z,55.20
2019-06-26T16:23:00.460Z,57.30
2019-06-26T16:25:28.760Z,59.00
2019-06-26T16:28:05.515Z,60.10
2019-06-26T16:30:27.059Z,60.50
2019-06-26T16:32:56.993Z,60.80
2019-06-26T16:35:25.505Z,61.80
2019-06-26T16:37:53.837Z,62.80
2019-06-26T16:40:22.132Z,63.00
2019-06-26T16:42:50.645Z,63.30
2019-06-26T16:45:18.948Z,63.00
2019-06-26T16:47:47.287Z,62.80
2019-06-26T16:50:15.612Z,61.80
2019-06-26T16:52:49.272Z,62.30
2019-06-26T16:55:14.043Z,62.90
2019-06-26T16:57:42.294Z,62.00
2019-06-26T17:00:10.629Z,63.50
2019-06-26T17:02:38.987Z,63.90
2019-06-26T17:05:07.235Z,65.20
2019-06-26T17:07:35.640Z,64.60
2019-06-26T17:10:06.265Z,65.20
2019-06-26T17:12:34.615Z,65.90
2019-06-26T17:15:04.341Z,66.60
2019-06-26T17:17:32.800Z,67.70
2019-06-26T17:20:01.068Z,68.40
2019-06-26T17:22:29.356Z,69.20
2019-06-26T17:24:57.620Z,70.40
2019-06-26T17:27:25.930Z,71.10
2019-06-26T17:29:54.205Z,71.90
2019-06-26T17:32:22.514Z,72.70
2019-06-26T17:34:50.913Z,73.40
2019-06-26T17:37:19.390Z,73.90
2019-06-26T17:39:47.657Z,74.20
2019-06-26T17:42:15.984Z,75.60
2019-06-26T17:44:44.277Z,75.70
2019-06-26T17:47:12.576Z,76.60
2019-06-26T17:49:40.849Z,77.90
2019-06-26T17:52:09.196Z,78.00
2019-06-26T17:54:37.464Z,78.60
2019-06-26T17:57:05.745Z,79.10
2019-06-26T17:59:34.103Z,78.60
2019-06-26T18:02:02.553Z,78.80
2019-06-26T18:04:30.966Z,79.90
2019-06-26T18:06:59.319Z,80.30
2019-06-26T18:09:27.597Z,80.20
2019-06-26T18:11:55.953Z,81.50
2019-06-26T18:14:24.421Z,81.60
2019-06-26T18:16:52.700Z,82.80
2019-06-26T18:19:21.082Z,83.20
2019-06-26T18:21:49.363Z,84.40
2019-06-26T18:24:17.689Z,84.10
2019-06-26T18:26:46.094Z,84.70
2019-06-26T18:29:14.401Z,85.50
2019-06-26T18:31:42.753Z,86.10
2019-06-26T18:34:11.124Z,86.70
2019-06-26T18:36:39.461Z,87.30
2019-06-26T18:39:08.580Z,87.70
2019-06-26T18:41:36.848Z,87.80
2019-06-26T18:44:05.150Z,88.10
2019-06-26T18:46:33.392Z,87.70
2019-06-26T18:49:01.738Z,88.00
2019-06-26T18:51:30.002Z,89.10
2019-06-26T18:54:01.001Z,89.00
2019-06-26T18:56:28.289Z,90.10
2019-06-26T18:58:56.662Z,90.50
2019-06-26T19:01:24.930Z,90.50
2019-06-26T19:03:53.237Z,90.60
2019-06-26T19:06:21.546Z,90.70
2019-06-26T19:08:49.858Z,91.10
2019-06-26T19:11:18.119Z,91.10
2019-06-26T19:13:46.407Z,91.30
2019-06-26T19:16:14.659Z,91.70
2019-06-26T19:18:43.026Z,91.80
2019-06-26T19:21:11.324Z,92.10
2019-06-26T19:23:39.613Z,92.30
2019-06-26T19:26:07.923Z,92.30
2019-06-26T19:28:36.240Z,92.40
2019-06-26T19:31:04.649Z,92.90
2019-06-26T19:33:32.993Z,93.20
2019-06-26T19:36:01.416Z,93.60
2019-06-26T19:38:29.778Z,93.80
2019-06-26T19:40:58.143Z,94.10
2019-06-26T19:43:26.489Z,94.50
2019-06-26T19:45:54.787Z,94.90
2019-06-26T19:48:23.048Z,95.10
2019-06-26T19:50:51.324Z,95.50
2019-06-26T19:53:19.852Z,95.80
2019-06-26T19:55:48.170Z,96.00
2019-06-26T19:58:16.518Z,96.70
2019-06-26T20:00:45.876Z,97.00
2019-06-26T20:03:14.213Z,97.10
2019-06-26T20:05:42.770Z,97.50
2019-06-26T20:08:11.049Z,97.60
2019-06-26T20:10:39.565Z,98.00
2019-06-26T20:13:07.917Z,98.20
2019-06-26T20:15:36.431Z,98.60
2019-06-26T20:18:05.691Z,98.90
2019-06-26T20:20:34.091Z,99.20
2019-06-26T20:23:02.541Z,99.50
2019-06-26T20:25:30.899Z,99.70
2019-06-26T20:27:59.313Z,99.80
2019-06-26T20:30:30.848Z,99.90
2019-06-26T20:32:59.133Z,99.90
2019-06-26T20:35:27.471Z,99.90
2019-06-26T20:37:55.818Z,99.90
2019-06-26T20:40:24.345Z,99.90
2019-06-26T20:42:52.730Z,99.90
2019-06-26T20:45:21.132Z,99.90
2019-06-26T20:47:49.463Z,99.90
2019-06-26T20:50:17.856Z,99.90
2019-06-26T20:52:46.162Z,99.90
2019-06-26T20:55:14.419Z,99.90
2019-06-26T20:57:42.724Z,99.90
2019-06-26T21:00:11.219Z,99.90
2019-06-26T21:02:39.559Z,99.90
2019-06-26T21:05:07.986Z,99.90
2019-06-26T21:07:36.340Z,99.90
2019-06-26T21:10:05.073Z,99.90
2019-06-26T21:12:33.438Z,99.90
2019-06-26T21:15:01.714Z,99.90
2019-06-26T21:17:30.150Z,99.90
2019-06-26T21:19:58.435Z,99.90
2019-06-26T21:22:26.720Z,99.90
2019-06-26T21:24:55.054Z,99.90
2019-06-26T21:27:23.378Z,99.90
2019-06-26T21:29:51.683Z,99.90
2019-06-26T21:32:19.990Z,99.90
2019-06-26T21:34:48.282Z,99.90
2019-06-26T21:37:16.602Z,99.90
2019-06-26T21:39:44.855Z,99.90
2019-06-26T21:42:13.134Z,99.90
2019-06-26T21:44:41.392Z,99.90
2019-06-26T21:47:09.687Z,99.90
2019-06-26T21:49:37.963Z,99.90
2019-06-26T21:52:06.319Z,99.90
2019-06-26T21:54:34.594Z,99.90
2019-06-26T21:57:02.939Z,99.90
2019-06-26T21:59:31.348Z,99.90
2019-06-26T22:01:59.799Z,99.90
2019-06-26T22:04:28.144Z,99.90
2019-06-26T22:06:56.424Z,99.90
2019-06-26T22:09:24.777Z,99.90
2019-06-26T22:11:53.077Z,99.90
2019-06-26T22:14:21.444Z,99.90
2019-06-26T22:16:49.697Z,99.90
2019-06-26T22:19:18.007Z,99.90
2019-06-26T22:21:46.301Z,99.90
2019-06-26T22:24:14.589Z,99.90
2019-06-26T22:26:42.834Z,99.90
2019-06-26T22:29:11.134Z,99.90
2019-06-26T22:31:39.379Z,99.90
2019-06-26T22:34:07.687Z,99.90
2019-06-26T22:36:35.942Z,99.90
2019-06-26T22:39:04.499Z,99.90
2019-06-26T22:41:32.837Z,99.90
2019-06-26T22:44:01.124Z,99.90
2019-06-26T22:46:29.485Z,99.90
2019-06-26T22:48:57.820Z,99.90
2019-06-26T22:51:26.095Z,99.90
2019-06-26T22:53:54.476Z,99.90
2019-06-26T22:56:22.818Z,99.90
2019-06-26T22:58:51.104Z,99.90
2019-06-26T23:01:19.359Z,99.90
2019-06-26T23:03:47.657Z,99.90
2019-06-26T23:06:15.948Z,99.90
2019-06-26T23:08:44.255Z,99.90
2019-06-26T23:11:12.526Z,99.90
2019-06-26T23:13:40.812Z,99.90
2019-06-26T23:16:09.074Z,99.90
2019-06-26T23:18:37.353Z,99.90
2019-06-26T23:21:05.737Z,99.90
2019-06-26T23:23:34.058Z,99.90
2019-06-26T23:26:02.351Z,99.90
2019-06-26T23:28:30.714Z,99.90
2019-06-26T23:30:59.079Z,99.90
2019-06-26T23:33:27.335Z,99.90
2019-06-26T23:35:55.694Z,99.90
2019-06-26T23:38:23.958Z,99.90
2019-06-26T23:40:52.334Z,99.90
2019-06-26T23:43:20.682Z,99.90
2019-06-26T23:45:49.033Z,99.90
2019-06-26T23:48:17.469Z,99.90
2019-06-26T23:50:45.760Z,99.90
2019-06-26T23:53:14.018Z,99.90
2019-06-26T23:55:42.323Z,99.90
2019-06-26T23:58:10.617Z,99.90
